Time;durP1;ratioP1;P1;durP2;ratioP2;P2;SDS_P1;SDS_P2;PMS_P1;PMS_P2;Temp;Humidity;BMP_temperature;BMP_pressure;BME280_temperature;BME280_humidity;BME280_pressure;Samples;Min_cycle;Max_cycle;Signal;HPM_P1;HPM_P2
2022/01/27 00:00:25;;;;;;;;;24.25;20.75;;;;;6.12;84.80;102461.41;5056286;28;11499;-71
2022/01/27 00:05:25;;;;;;;;;19.00;17.50;;;;;6.12;85.12;102475.69;5056809;28;11598;-72
2022/01/27 00:08:09;;;;;;;;;26.25;18.25;;;;;6.17;85.24;102478.88;5030844;28;11284;-70
2022/01/27 00:13:12;;;;;;;;;30.00;22.75;;;;;6.18;84.94;102475.22;5057125;28;11482;-71
2022/01/27 00:15:39;;;;;;;;;25.75;20.50;;;;;6.23;84.60;102469.50;5056269;28;11534;-71
2022/01/27 00:18:16;;;;;;;;;32.25;27.00;;;;;6.25;84.42;102454.09;5039761;28;11624;-71
2022/01/27 00:20:46;;;;;;;;;28.25;19.75;;;;;6.26;84.79;102453.13;5047103;28;11584;-71
2022/01/27 00:23:14;;;;;;;;;16.75;16.25;;;;;6.26;84.94;102449.56;5055985;28;11495;-70
2022/01/27 00:25:42;;;;;;;;;24.75;19.25;;;;;6.25;84.64;102446.03;5039814;28;11580;-70
2022/01/27 00:28:08;;;;;;;;;27.75;22.50;;;;;6.26;84.15;102436.13;5055585;28;11608;-70
2022/01/27 00:30:37;;;;;;;;;22.00;22.00;;;;;6.27;83.34;102449.44;5045681;28;11576;-71
2022/01/27 00:33:04;;;;;;;;;22.75;19.75;;;;;6.28;83.22;102443.09;5056941;28;11481;-70
2022/01/27 00:35:31;;;;;;;;;22.75;19.50;;;;;6.27;83.00;102445.91;5059767;28;11619;-70
2022/01/27 00:37:59;;;;;;;;;32.00;23.25;;;;;6.27;83.26;102437.84;5060228;28;11576;-71
2022/01/27 00:40:25;;;;;;;;;22.00;22.00;;;;;6.26;83.00;102447.75;5049303;28;11596;-71
2022/01/27 00:42:52;;;;;;;;;23.25;19.00;;;;;6.30;82.48;102459.97;5057260;28;11492;-71
2022/01/27 00:45:20;;;;;;;;;21.25;20.25;;;;;6.34;82.68;102450.66;5062139;28;11269;-70
2022/01/27 00:47:47;;;;;;;;;29.00;27.75;;;;;6.33;82.21;102443.56;5050135;28;11556;-71
2022/01/27 00:50:17;;;;;;;;;24.25;19.50;;;;;6.34;82.07;102430.97;5049811;28;11634;-70
2022/01/27 00:52:51;;;;;;;;;34.00;33.75;;;;;6.33;82.22;102424.75;5062342;28;11507;-70
2022/01/27 00:55:18;;;;;;;;;22.75;18.00;;;;;6.33;82.06;102422.06;5048162;28;11529;-70
2022/01/27 01:00:25;;;;;;;;;27.50;26.50;;;;;6.36;81.56;102416.44;5059692;28;11586;-71
2022/01/27 01:03:01;;;;;;;;;34.00;31.25;;;;;6.34;81.85;102417.53;5047283;28;11514;-71
2022/01/27 01:07:58;;;;;;;;;29.75;23.75;;;;;6.36;82.00;102381.47;5060703;28;11585;-71
2022/01/27 01:16:02;;;;;;;;;38.75;28.25;;;;;6.32;81.87;102376.47;5039448;28;11564;-70
2022/01/27 01:32:37;;;;;;;;;35.50;30.00;;;;;6.15;81.67;102367.03;5048327;28;11566;-70
2022/01/27 01:35:07;;;;;;;;;31.75;26.50;;;;;6.12;81.09;102348.47;5048193;28;11526;-72
2022/01/27 01:37:40;;;;;;;;;30.75;24.75;;;;;6.13;81.19;102340.28;5049979;28;11522;-71
2022/01/27 01:40:16;;;;;;;;;42.50;33.00;;;;;6.11;80.86;102339.56;5057944;28;11504;-70
2022/01/27 01:42:44;;;;;;;;;29.75;29.00;;;;;6.11;80.72;102338.69;5059528;28;11502;-71
2022/01/27 01:45:14;;;;;;;;;31.75;24.75;;;;;6.09;81.15;102349.56;5058879;28;11546;-70
2022/01/27 01:47:40;;;;;;;;;38.25;31.50;;;;;6.06;81.33;102341.75;5046983;28;12292;-71
2022/01/27 01:50:10;;;;;;;;;35.50;30.50;;;;;6.02;81.11;102326.84;5058913;28;11512;-70
2022/01/27 01:52:38;;;;;;;;;34.50;31.25;;;;;6.05;81.41;102350.81;5060896;28;12287;-71
2022/01/27 01:55:07;;;;;;;;;32.75;30.00;;;;;6.00;81.33;102350.31;5042494;28;11581;-71
2022/01/27 01:57:35;;;;;;;;;41.50;36.75;;;;;5.99;81.44;102364.75;5057580;28;11534;-70
2022/01/27 02:00:07;;;;;;;;;33.50;27.50;;;;;6.01;81.65;102356.56;5058717;28;11541;-70
2022/01/27 02:02:37;;;;;;;;;24.75;24.50;;;;;6.01;81.97;102360.09;5059720;28;11524;-71
2022/01/27 02:05:05;;;;;;;;;34.00;31.50;;;;;5.98;81.92;102363.03;5040954;28;11527;-70
2022/01/27 02:10:28;;;;;;;;;25.00;22.75;;;;;5.99;82.75;102359.38;5059098;28;11522;-71
2022/01/27 02:18:08;;;;;;;;;38.25;34.00;;;;;5.99;83.75;102348.63;5058830;28;11518;-71
2022/01/27 02:20:40;;;;;;;;;33.75;29.50;;;;;5.97;83.17;102368.53;5058061;28;11571;-71
2022/01/27 02:23:08;;;;;;;;;30.75;25.75;;;;;5.96;83.53;102348.84;5059325;28;11515;-70
2022/01/27 02:25:36;;;;;;;;;35.25;28.00;;;;;5.95;83.68;102357.00;5058765;28;11537;-71
2022/01/27 02:28:03;;;;;;;;;36.50;30.25;;;;;5.98;83.82;102352.28;5058014;28;11517;-70
2022/01/27 02:30:30;;;;;;;;;23.25;21.00;;;;;6.00;83.70;102354.84;5058551;28;11482;-70
2022/01/27 02:32:58;;;;;;;;;29.25;24.75;;;;;6.00;83.81;102349.47;5057525;28;11513;-71
2022/01/27 02:35:28;;;;;;;;;31.50;24.50;;;;;6.01;83.63;102343.13;5056730;28;11526;-70
2022/01/27 02:37:55;;;;;;;;;37.75;29.25;;;;;6.01;83.64;102337.75;5047193;28;11509;-70
2022/01/27 02:40:39;;;;;;;;;31.25;27.75;;;;;6.02;83.74;102328.69;5057647;28;11524;-72
2022/01/27 02:43:06;;;;;;;;;31.25;30.00;;;;;6.01;83.79;102324.28;5057623;28;11510;-72
2022/01/27 02:45:50;;;;;;;;;37.75;25.50;;;;;6.01;83.87;102313.53;5046941;28;11557;-71
2022/01/27 02:48:16;;;;;;;;;37.00;27.25;;;;;6.02;83.83;102313.41;5056963;28;11531;-71
2022/01/27 02:50:44;;;;;;;;;29.50;25.50;;;;;6.00;83.69;102303.78;5059272;28;11542;-70
2022/01/27 02:53:10;;;;;;;;;37.75;33.00;;;;;5.99;83.63;102288.63;5056646;28;11499;-71
2022/01/27 02:55:37;;;;;;;;;29.75;25.00;;;;;5.97;83.87;102290.56;5047606;28;11597;-70
2022/01/27 02:58:04;;;;;;;;;27.00;24.00;;;;;6.00;83.68;102293.00;5058346;28;11508;-70
2022/01/27 03:00:32;;;;;;;;;29.00;25.25;;;;;5.99;83.80;102283.25;5058928;28;11583;-70
2022/01/27 03:02:58;;;;;;;;;34.00;32.00;;;;;5.99;84.18;102277.88;5047382;28;11629;-71
2022/01/27 03:05:25;;;;;;;;;31.50;24.25;;;;;5.99;83.76;102267.97;5057999;28;11550;-70
2022/01/27 03:07:52;;;;;;;;;30.75;28.00;;;;;5.99;83.80;102256.38;5040906;28;11627;-71
2022/01/27 03:10:19;;;;;;;;;31.75;28.00;;;;;5.95;83.87;102265.63;5040852;28;12253;-71
2022/01/27 03:12:57;;;;;;;;;30.75;27.50;;;;;5.99;84.30;102270.66;5047225;28;11509;-70
2022/01/27 03:15:23;;;;;;;;;23.25;18.00;;;;;6.00;84.32;102260.75;5058329;28;11492;-71
2022/01/27 03:17:50;;;;;;;;;30.50;28.00;;;;;6.02;84.24;102258.78;5056816;28;11469;-70
2022/01/27 03:20:17;;;;;;;;;36.25;29.50;;;;;6.02;84.27;102253.41;5057959;28;11526;-70
2022/01/27 03:22:44;;;;;;;;;30.25;28.25;;;;;6.01;84.46;102254.41;5060811;28;11512;-71
2022/01/27 03:25:11;;;;;;;;;35.75;29.00;;;;;6.04;84.60;102246.09;5057607;28;11574;-71
2022/01/27 03:27:44;;;;;;;;;27.00;21.25;;;;;6.04;84.83;102257.69;5047664;28;11609;-71
2022/01/27 03:30:11;;;;;;;;;24.75;19.75;;;;;6.08;84.66;102252.91;5046358;28;11572;-70
2022/01/27 03:32:37;;;;;;;;;28.50;24.75;;;;;6.09;84.74;102255.47;5042227;28;11585;-71
2022/01/27 03:35:04;;;;;;;;;31.50;25.75;;;;;6.10;84.86;102243.75;5053647;28;11511;-71
2022/01/27 03:37:30;;;;;;;;;20.00;18.75;;;;;6.12;84.89;102236.41;5036896;28;11532;-71
2022/01/27 03:39:57;;;;;;;;;27.75;22.50;;;;;6.16;85.02;102242.38;5059052;28;12649;-72
2022/01/27 03:42:24;;;;;;;;;18.75;18.00;;;;;6.14;85.02;102228.22;5056903;28;11609;-71
2022/01/27 03:44:51;;;;;;;;;25.75;24.50;;;;;6.15;85.35;102225.38;5038793;28;11111;-71
2022/01/27 03:47:17;;;;;;;;;27.25;24.50;;;;;6.20;85.31;102214.28;5055892;28;11552;-70
2022/01/27 03:49:44;;;;;;;;;29.50;21.75;;;;;6.21;85.28;102221.38;5055222;28;11580;-71
2022/01/27 03:52:10;;;;;;;;;22.75;16.25;;;;;6.19;85.64;102199.09;5058222;28;11505;-70
2022/01/27 03:54:37;;;;;;;;;24.75;20.50;;;;;6.21;85.76;102196.31;5045676;28;11504;-70
2022/01/27 03:57:04;;;;;;;;;21.75;21.00;;;;;6.25;86.09;102185.16;5056801;28;11508;-70
2022/01/27 03:59:30;;;;;;;;;17.75;16.00;;;;;6.27;86.12;102185.88;5058338;28;11493;-71
2022/01/27 04:01:57;;;;;;;;;33.00;24.00;;;;;6.26;86.09;102194.94;5057077;28;11280;-70
2022/01/27 04:04:25;;;;;;;;;24.00;19.50;;;;;6.27;86.54;102202.03;5044654;28;11575;-72
2022/01/27 04:06:53;;;;;;;;;19.25;17.00;;;;;6.32;86.71;102190.88;5046186;28;11560;-71
2022/01/27 04:09:20;;;;;;;;;24.00;22.25;;;;;6.36;86.75;102181.56;5044517;28;11266;-70
2022/01/27 04:11:47;;;;;;;;;18.00;15.00;;;;;6.37;86.75;102164.44;5051046;28;11495;-71
2022/01/27 04:14:14;;;;;;;;;21.25;18.25;;;;;6.35;87.08;102183.41;5063177;28;11142;-71
2022/01/27 04:16:41;;;;;;;;;19.50;17.50;;;;;6.38;87.07;102167.00;5060532;28;12009;-71
2022/01/27 04:19:08;;;;;;;;;20.75;15.75;;;;;6.37;87.63;102170.69;5049391;28;11103;-70
2022/01/27 04:21:35;;;;;;;;;18.00;17.25;;;;;6.43;87.51;102147.78;5060035;28;11152;-70
2022/01/27 04:24:02;;;;;;;;;22.50;20.00;;;;;6.41;87.52;102157.81;5050027;28;12374;-72
2022/01/27 04:26:36;;;;;;;;;21.75;17.25;;;;;6.45;87.85;102151.22;5050513;28;12087;-72
2022/01/27 04:29:03;;;;;;;;;18.50;17.00;;;;;6.46;87.97;102150.25;5060024;28;11085;-72
2022/01/27 04:31:30;;;;;;;;;14.25;13.00;;;;;6.47;88.07;102150.09;5061023;28;11182;-70
2022/01/27 04:33:58;;;;;;;;;18.25;17.00;;;;;6.49;88.08;102141.91;5059555;28;11039;-71
2022/01/27 04:36:29;;;;;;;;;18.75;15.50;;;;;6.51;88.25;102149.84;5060790;28;11051;-71
2022/01/27 04:41:41;;;;;;;;;15.75;13.25;;;;;6.52;88.93;102151.53;5061909;28;11435;-70
2022/01/27 04:47:08;;;;;;;;;24.75;22.75;;;;;6.48;90.22;102159.88;5056248;28;11109;-70
2022/01/27 04:49:34;;;;;;;;;17.00;15.75;;;;;6.48;90.79;102150.97;5060020;28;11521;-70
2022/01/27 04:52:01;;;;;;;;;18.50;14.50;;;;;6.49;90.89;102147.28;5043410;28;11199;-73
2022/01/27 04:55:12;;;;;;;;;23.00;16.00;;;;;6.50;90.79;102137.38;5050103;28;11934;-70
2022/01/27 04:57:17;;;;;;;;;19.25;17.00;;;;;6.51;90.76;102137.25;5044161;28;12305;-73
2022/01/27 04:59:44;;;;;;;;;21.00;17.00;;;;;6.55;91.19;102143.22;5042670;28;11271;-72
2022/01/27 05:02:31;;;;;;;;;13.75;13.25;;;;;6.56;90.95;102135.00;5030267;28;11575;-73
2022/01/27 05:04:58;;;;;;;;;17.50;12.75;;;;;6.57;91.00;102134.03;5043400;28;11467;-74
2022/01/27 05:07:54;;;;;;;;;14.50;13.00;;;;;6.61;90.98;102129.22;5044877;28;11119;-74
2022/01/27 05:10:23;;;;;;;;;16.50;15.50;;;;;6.64;90.98;102129.81;5040948;28;11192;-73
2022/01/27 05:12:53;;;;;;;;;15.50;14.75;;;;;6.66;90.94;102130.53;5059455;28;11207;-72
2022/01/27 05:15:19;;;;;;;;;20.50;17.75;;;;;6.64;91.11;102139.72;5061066;28;11294;-73
2022/01/27 05:17:46;;;;;;;;;20.50;18.75;;;;;6.68;90.94;102139.31;5055697;28;12633;-73
2022/01/27 05:20:12;;;;;;;;;19.25;14.50;;;;;6.68;91.06;102135.78;5048053;28;11127;-72
2022/01/27 05:22:39;;;;;;;;;16.50;15.00;;;;;6.70;91.08;102129.31;5059686;28;11219;-73
2022/01/27 05:25:05;;;;;;;;;22.00;17.00;;;;;6.71;91.46;102120.25;5059320;28;11136;-73
2022/01/27 05:27:32;;;;;;;;;17.00;14.25;;;;;6.72;91.05;102121.94;5048618;28;11269;-74
2022/01/27 05:30:00;;;;;;;;;20.50;15.75;;;;;6.76;91.12;102130.59;5048973;28;11208;-73
2022/01/27 05:32:26;;;;;;;;;13.25;13.25;;;;;6.75;91.29;102112.75;5046243;28;11300;-73
2022/01/27 05:34:53;;;;;;;;;19.75;16.75;;;;;6.77;91.25;102111.63;5059052;28;11082;-73
2022/01/27 05:37:19;;;;;;;;;16.00;13.75;;;;;6.75;91.21;102124.38;5063184;28;10915;-72
2022/01/27 05:39:46;;;;;;;;;16.00;12.75;;;;;6.76;91.39;102101.84;5048299;28;10944;-73
2022/01/27 05:42:12;;;;;;;;;18.25;16.00;;;;;6.81;91.36;102111.38;5048935;28;11112;-73
2022/01/27 05:44:39;;;;;;;;;16.50;15.00;;;;;6.79;91.31;102109.66;5039905;28;11239;-72
2022/01/27 05:47:05;;;;;;;;;13.00;12.00;;;;;6.82;91.58;102122.00;5041913;28;11253;-72
2022/01/27 05:49:32;;;;;;;;;5.75;3.75;;;;;6.84;91.32;102095.78;5046985;28;11055;-73
2022/01/27 05:51:58;;;;;;;;;13.50;12.25;;;;;6.86;91.57;102099.19;5058863;28;10876;-74
2022/01/27 05:54:25;;;;;;;;;20.00;16.50;;;;;6.86;91.64;102084.88;5061275;28;11298;-73
2022/01/27 05:56:51;;;;;;;;;14.50;14.25;;;;;6.86;91.91;102084.88;5057203;28;11180;-72
2022/01/27 05:59:18;;;;;;;;;20.75;19.00;;;;;6.87;92.21;102078.53;5058428;28;11028;-73
2022/01/27 06:01:45;;;;;;;;;15.50;14.75;;;;;6.88;92.27;102074.84;5056102;28;11182;-74
2022/01/27 06:04:11;;;;;;;;;19.75;16.25;;;;;6.89;92.43;102079.22;5045697;28;11268;-71
2022/01/27 06:06:38;;;;;;;;;17.00;14.00;;;;;6.87;93.23;102065.91;5057213;28;11260;-73
2022/01/27 06:09:04;;;;;;;;;17.00;17.00;;;;;6.90;93.23;102072.88;5049175;28;11146;-73
2022/01/27 06:11:31;;;;;;;;;18.00;15.50;;;;;6.90;93.81;102067.47;5059981;28;11587;-73
2022/01/27 06:13:57;;;;;;;;;20.75;16.00;;;;;6.89;94.29;102068.47;5058477;28;11381;-74
2022/01/27 06:16:24;;;;;;;;;20.50;16.50;;;;;6.90;94.41;102062.09;5059656;28;11274;-72
2022/01/27 06:18:50;;;;;;;;;18.50;15.00;;;;;6.88;94.69;102064.94;5032019;28;11227;-73
2022/01/27 06:21:18;;;;;;;;;19.50;17.00;;;;;6.87;95.11;102063.22;5024130;28;11272;-72
2022/01/27 06:23:44;;;;;;;;;14.75;12.25;;;;;6.86;95.16;102066.06;5058541;28;11499;-73
2022/01/27 06:26:11;;;;;;;;;15.00;14.50;;;;;6.89;95.42;102063.09;5059282;28;11107;-74
2022/01/27 06:28:37;;;;;;;;;16.00;15.00;;;;;6.86;95.64;102066.91;5041399;28;11264;-73
2022/01/27 06:31:04;;;;;;;;;13.25;13.25;;;;;6.88;96.05;102064.94;5060604;28;11173;-74
2022/01/27 06:33:30;;;;;;;;;21.75;19.25;;;;;6.92;96.13;102073.56;5043991;28;11039;-73
2022/01/27 06:35:57;;;;;;;;;15.00;12.25;;;;;6.91;96.32;102074.56;5059498;28;11053;-72
2022/01/27 06:38:24;;;;;;;;;18.00;12.75;;;;;6.92;97.31;102073.56;5058528;28;15565;-73
2022/01/27 06:40:51;;;;;;;;;16.00;15.25;;;;;6.90;97.90;102078.25;5059784;28;11028;-71
2022/01/27 06:43:17;;;;;;;;;20.50;17.00;;;;;6.87;98.86;102071.28;5058886;28;11128;-72
2022/01/27 06:45:44;;;;;;;;;20.00;15.25;;;;;6.90;99.47;102071.03;5059152;28;11211;-72
2022/01/27 06:48:10;;;;;;;;;19.00;14.50;;;;;6.86;100.00;102083.06;5059617;28;11121;-72
2022/01/27 06:50:38;;;;;;;;;13.75;13.75;;;;;6.82;100.00;102078.94;5058853;28;11127;-71
2022/01/27 06:53:05;;;;;;;;;12.25;10.00;;;;;6.77;100.00;102075.78;5058728;28;11037;-72
2022/01/27 06:55:32;;;;;;;;;20.50;19.50;;;;;6.79;100.00;102074.66;5047162;28;10996;-72
2022/01/27 06:57:59;;;;;;;;;14.00;14.00;;;;;6.76;100.00;102082.16;5057914;28;11197;-70
2022/01/27 07:00:25;;;;;;;;;17.50;15.00;;;;;6.72;100.00;102072.66;5045605;28;11505;-70
2022/01/27 07:02:53;;;;;;;;;15.00;11.00;;;;;6.75;100.00;102081.31;5040636;28;11111;-71
2022/01/27 07:05:19;;;;;;;;;13.50;10.25;;;;;6.72;100.00;102076.19;5038463;28;11090;-70
2022/01/27 07:07:46;;;;;;;;;20.50;15.00;;;;;6.74;100.00;102090.38;5057880;28;11049;-70
2022/01/27 07:10:13;;;;;;;;;10.25;8.00;;;;;6.74;100.00;102082.31;5056315;28;11093;-69
2022/01/27 07:12:43;;;;;;;;;13.25;11.50;;;;;6.73;100.00;102088.66;5043847;28;10825;-70
2022/01/27 07:15:09;;;;;;;;;14.50;12.25;;;;;6.75;100.00;102089.38;5053986;28;11035;-72
2022/01/27 07:17:36;;;;;;;;;16.50;12.50;;;;;6.74;100.00;102098.44;5041807;28;11546;-72
2022/01/27 07:20:04;;;;;;;;;20.75;19.00;;;;;6.76;100.00;102085.72;5057390;28;11099;-72
2022/01/27 07:22:32;;;;;;;;;24.75;15.00;;;;;6.77;100.00;102103.56;5058193;28;11172;-72
2022/01/27 07:24:59;;;;;;;;;16.00;10.50;;;;;6.77;100.00;102094.63;5057704;28;11158;-72
2022/01/27 07:27:25;;;;;;;;;23.50;18.25;;;;;6.77;100.00;102089.25;5058904;28;11024;-70
2022/01/27 07:29:52;;;;;;;;;19.75;18.75;;;;;6.77;100.00;102083.88;5055921;28;11289;-72
2022/01/27 07:32:19;;;;;;;;;13.00;13.00;;;;;6.78;100.00;102086.44;5057808;28;11491;-71
2022/01/27 07:34:46;;;;;;;;;15.00;15.00;;;;;6.76;100.00;102101.84;5045498;28;11012;-70
2022/01/27 07:37:12;;;;;;;;;19.75;15.25;;;;;6.78;100.00;102116.03;5060525;28;11120;-72
2022/01/27 07:39:39;;;;;;;;;15.00;11.00;;;;;6.78;100.00;102101.72;5043436;28;11141;-71
2022/01/27 07:42:05;;;;;;;;;14.75;12.00;;;;;6.82;100.00;102087.00;5059656;28;11117;-71
2022/01/27 07:44:34;;;;;;;;;15.50;13.25;;;;;6.83;100.00;102102.16;5064906;28;11093;-72
2022/01/27 07:47:01;;;;;;;;;10.25;10.25;;;;;6.83;100.00;102104.00;5049362;28;11333;-71
2022/01/27 07:49:28;;;;;;;;;14.25;10.50;;;;;6.83;100.00;102095.94;5048725;28;10930;-72
2022/01/27 07:51:56;;;;;;;;;21.00;15.50;;;;;6.85;100.00;102084.03;5049789;28;10987;-72
2022/01/27 07:54:22;;;;;;;;;17.25;10.75;;;;;6.85;100.00;102084.03;5046551;28;11157;-72
2022/01/27 07:56:49;;;;;;;;;10.75;7.75;;;;;6.86;100.00;102096.50;5061899;28;10904;-71
2022/01/27 07:59:15;;;;;;;;;17.25;13.50;;;;;6.90;100.00;102097.94;5049441;28;11042;-72
2022/01/27 08:01:41;;;;;;;;;13.75;13.75;;;;;6.88;100.00;102102.63;5060681;28;11022;-72
2022/01/27 08:04:08;;;;;;;;;11.00;11.00;;;;;6.89;100.00;102098.06;5050672;28;11018;-71
2022/01/27 08:06:35;;;;;;;;;13.00;12.50;;;;;6.90;100.00;102106.03;5051108;28;10997;-71
2022/01/27 08:09:02;;;;;;;;;12.50;12.50;;;;;6.89;100.00;102103.47;5060195;28;11017;-71
2022/01/27 08:11:28;;;;;;;;;12.75;11.25;;;;;6.91;100.00;102106.88;5049576;28;10865;-72
2022/01/27 08:13:55;;;;;;;;;12.00;10.00;;;;;6.90;100.00;102107.84;5048600;28;11947;-72
2022/01/27 08:16:21;;;;;;;;;15.25;12.25;;;;;6.91;100.00;102101.50;5049706;28;10856;-71
2022/01/27 08:18:48;;;;;;;;;15.75;10.00;;;;;6.88;100.00;102105.31;5042453;28;10913;-72
2022/01/27 08:21:14;;;;;;;;;13.00;11.00;;;;;6.91;100.00;102105.03;5050314;28;10927;-72
2022/01/27 08:23:43;;;;;;;;;14.25;12.00;;;;;6.92;100.00;102089.72;5050997;28;10978;-72
2022/01/27 08:26:12;;;;;;;;;18.00;13.25;;;;;6.92;100.00;102103.19;5061125;28;11085;-70
2022/01/27 08:31:06;;;;;;;;;15.25;13.75;;;;;6.93;100.00;102099.50;5050755;28;11018;-69
2022/01/27 08:33:34;;;;;;;;;16.00;11.50;;;;;6.93;100.00;102094.97;5059883;28;10885;-71
2022/01/27 08:36:00;;;;;;;;;10.50;6.75;;;;;6.95;100.00;102105.66;5060775;28;11492;-71
2022/01/27 08:38:28;;;;;;;;;9.25;6.25;;;;;6.97;100.00;102093.75;5059715;28;10831;-70
2022/01/27 08:40:55;;;;;;;;;11.25;10.00;;;;;6.99;100.00;102099.00;5059528;28;11547;-70
2022/01/27 08:43:22;;;;;;;;;12.75;11.50;;;;;6.99;100.00;102090.91;5047970;28;11716;-67
2022/01/27 08:45:50;;;;;;;;;19.00;13.00;;;;;7.00;100.00;102098.84;5057731;28;10904;-71
2022/01/27 08:48:19;;;;;;;;;14.25;12.00;;;;;7.23;100.00;102088.75;5029635;28;11109;-72
2022/01/27 08:50:52;;;;;;;;;11.25;10.00;;;;;7.10;100.00;102083.59;5060714;28;10952;-69
2022/01/27 08:53:39;;;;;;;;;12.00;12.00;;;;;7.08;100.00;102088.25;5046487;28;10740;-71
2022/01/27 08:56:05;;;;;;;;;17.00;14.25;;;;;7.10;100.00;102088.97;5059293;28;10773;-71
2022/01/27 08:58:34;;;;;;;;;14.00;13.25;;;;;7.10;100.00;102096.19;5050547;28;10823;-72
2022/01/27 09:01:03;;;;;;;;;10.25;7.50;;;;;7.12;100.00;102087.97;5060559;28;10972;-72
2022/01/27 09:03:30;;;;;;;;;7.50;7.00;;;;;7.14;100.00;102094.94;5049180;28;10746;-72
2022/01/27 09:05:56;;;;;;;;;12.00;10.00;;;;;7.15;100.00;102088.56;5049209;28;10496;-71
2022/01/27 09:08:23;;;;;;;;;10.50;9.00;;;;;7.19;100.00;102089.13;5059714;28;10835;-72
2022/01/27 09:10:49;;;;;;;;;7.75;7.75;;;;;7.25;100.00;102094.84;5050038;28;10693;-72
2022/01/27 09:13:18;;;;;;;;;14.25;11.25;;;;;7.31;100.00;102090.75;5055346;28;10714;-72
2022/01/27 09:15:44;;;;;;;;;16.00;13.50;;;;;7.31;100.00;102088.91;5059135;28;10847;-72
2022/01/27 09:18:11;;;;;;;;;12.25;9.50;;;;;7.34;100.00;102094.03;5057870;28;10653;-71
2022/01/27 09:20:38;;;;;;;;;11.25;8.50;;;;;7.35;100.00;102098.41;5041960;28;10542;-71
2022/01/27 09:23:12;;;;;;;;;10.25;9.75;;;;;7.34;100.00;102087.78;5058570;28;10563;-71
2022/01/27 09:25:48;;;;;;;;;9.25;7.75;;;;;7.33;100.00;102086.06;5049987;28;10543;-71
2022/01/27 09:28:15;;;;;;;;;14.00;10.00;;;;;7.32;100.00;102087.91;5057769;28;10493;-72
2022/01/27 09:30:44;;;;;;;;;10.50;7.25;;;;;7.36;100.00;102088.50;5032162;28;10689;-71
2022/01/27 09:33:12;;;;;;;;;9.00;9.00;;;;;7.35;100.00;102087.63;5058699;28;11351;-71
2022/01/27 09:35:40;;;;;;;;;11.25;8.00;;;;;7.34;100.00;102099.41;5061187;28;10703;-72
2022/01/27 09:38:06;;;;;;;;;14.00;9.50;;;;;7.36;100.00;102093.88;5033382;28;10543;-72
2022/01/27 09:40:34;;;;;;;;;9.00;7.25;;;;;7.36;100.00;102097.44;5049778;28;10605;-72
2022/01/27 09:43:03;;;;;;;;;9.50;8.00;;;;;7.40;100.00;102100.69;5059788;28;10516;-72
2022/01/27 09:45:31;;;;;;;;;7.25;7.25;;;;;7.38;100.00;102106.22;5033453;28;10739;-72
2022/01/27 09:48:01;;;;;;;;;16.75;10.75;;;;;7.37;100.00;102101.81;5040582;28;10675;-72
2022/01/27 09:50:59;;;;;;;;;7.75;6.25;;;;;7.37;100.00;102109.91;5050130;28;10703;-71
2022/01/27 09:53:27;;;;;;;;;13.25;10.50;;;;;7.41;100.00;102102.41;5048803;28;10687;-70
2022/01/27 09:55:53;;;;;;;;;8.25;7.50;;;;;7.41;100.00;102116.72;5048768;28;10645;-72
2022/01/27 09:58:20;;;;;;;;;13.25;10.00;;;;;7.44;100.00;102114.78;5057459;28;10707;-72
2022/01/27 10:00:47;;;;;;;;;11.00;8.25;;;;;7.43;100.00;102111.19;5058158;28;10691;-72
2022/01/27 10:03:16;;;;;;;;;12.75;11.25;;;;;7.45;100.00;102116.47;5058334;28;10640;-72
2022/01/27 10:05:44;;;;;;;;;12.50;11.00;;;;;7.46;100.00;102119.03;5048431;28;10749;-72
2022/01/27 10:08:19;;;;;;;;;13.00;6.50;;;;;7.46;100.00;102123.56;5055527;28;10776;-69
2022/01/27 10:10:48;;;;;;;;;6.00;6.00;;;;;7.49;100.00;102129.53;5049175;28;10730;-71
2022/01/27 10:13:35;;;;;;;;;8.75;6.50;;;;;7.51;100.00;102110.53;5059336;28;10509;-71
2022/01/27 10:16:01;;;;;;;;;12.00;10.00;;;;;7.54;100.00;102126.41;5059977;28;10465;-71
2022/01/27 10:18:35;;;;;;;;;7.50;7.00;;;;;7.59;100.00;102129.53;5058591;28;10603;-73
2022/01/27 10:21:07;;;;;;;;;5.00;5.00;;;;;7.65;100.00;102129.84;5058792;28;10665;-73
2022/01/27 10:23:37;;;;;;;;;7.00;6.00;;;;;7.68;100.00;102126.00;5058273;28;10437;-72
2022/01/27 10:26:14;;;;;;;;;7.75;7.50;;;;;7.69;100.00;102123.19;5039297;28;10595;-71
2022/01/27 10:28:57;;;;;;;;;8.75;5.50;;;;;7.74;100.00;102125.47;5058355;28;10648;-72
2022/01/27 10:31:26;;;;;;;;;7.00;2.50;;;;;7.77;100.00;102138.66;5057799;28;10698;-72
2022/01/27 10:33:59;;;;;;;;;6.50;4.75;;;;;7.84;100.00;102129.03;5056753;28;10575;-72
2022/01/27 10:36:36;;;;;;;;;9.00;7.00;;;;;7.86;100.00;102127.03;5055649;28;10578;-73
2022/01/27 10:39:08;;;;;;;;;9.00;8.00;;;;;7.86;100.00;102134.28;5049220;28;10512;-73
2022/01/27 10:41:53;;;;;;;;;5.00;5.00;;;;;7.86;100.00;102134.28;5057458;28;10576;-72
2022/01/27 10:44:20;;;;;;;;;9.00;8.50;;;;;7.87;100.00;102127.88;5040122;28;10373;-72
2022/01/27 10:47:16;;;;;;;;;8.00;5.75;;;;;7.91;100.00;102124.78;5058522;28;11115;-72
2022/01/27 10:52:52;;;;;;;;;9.25;6.75;;;;;7.95;100.00;102134.31;5039916;28;10465;-72
2022/01/27 10:55:20;;;;;;;;;13.00;7.00;;;;;7.96;100.00;102125.22;5057892;28;10452;-72
2022/01/27 10:57:50;;;;;;;;;10.75;7.50;;;;;7.97;100.00;102126.06;5057361;28;10532;-72
2022/01/27 11:00:22;;;;;;;;;7.75;6.00;;;;;7.97;100.00;102126.06;5047871;28;10543;-72
2022/01/27 11:02:58;;;;;;;;;6.50;6.00;;;;;8.01;100.00;102133.75;5058079;28;10515;-72
2022/01/27 11:05:29;;;;;;;;;9.00;6.75;;;;;8.03;100.00;102130.91;5057404;28;10511;-72
2022/01/27 11:07:57;;;;;;;;;9.25;6.00;;;;;8.02;100.00;102135.44;5057707;28;10637;-72
2022/01/27 11:10:26;;;;;;;;;7.00;6.00;;;;;8.01;100.00;102125.66;5038722;28;10479;-72
2022/01/27 11:12:53;;;;;;;;;6.00;4.50;;;;;8.05;100.00;102128.06;5045514;28;10364;-72
2022/01/27 11:15:21;;;;;;;;;7.00;7.00;;;;;8.04;100.00;102121.81;5047539;28;10394;-72
2022/01/27 11:17:49;;;;;;;;;6.50;6.50;;;;;8.02;100.00;102129.19;5036751;28;11342;-72
2022/01/27 11:20:54;;;;;;;;;4.50;4.50;;;;;7.98;100.00;102134.03;5049121;28;10556;-72
2022/01/27 11:26:12;;;;;;;;;4.75;4.00;;;;;8.10;100.00;102126.63;5057252;28;10452;-72
2022/01/27 11:28:46;;;;;;;;;8.75;6.00;;;;;8.03;100.00;102120.97;5047279;28;10253;-72
2022/01/27 11:31:15;;;;;;;;;7.75;6.25;;;;;8.00;100.00;102132.03;5055114;28;10274;-72
2022/01/27 11:33:57;;;;;;;;;8.50;6.00;;;;;8.02;100.00;102123.81;5058360;28;10314;-71
2022/01/27 11:36:24;;;;;;;;;6.00;4.00;;;;;8.07;100.00;102128.78;5038518;28;10243;-72
2022/01/27 11:38:51;;;;;;;;;9.25;6.75;;;;;8.01;100.00;102124.81;5055924;28;10378;-72
2022/01/27 11:41:39;;;;;;;;;6.50;5.00;;;;;8.03;100.00;102130.91;5056569;28;10234;-71
2022/01/27 11:44:36;;;;;;;;;6.00;5.25;;;;;8.09;100.00;102129.47;5047207;28;10238;-72
2022/01/27 11:47:10;;;;;;;;;4.00;4.00;;;;;8.13;100.00;102120.97;5053274;28;10264;-72
2022/01/27 11:49:59;;;;;;;;;4.25;3.50;;;;;8.16;100.00;102120.66;5046153;28;10323;-72
2022/01/27 11:52:30;;;;;;;;;6.25;5.00;;;;;8.25;100.00;102127.09;5046426;28;10392;-71
2022/01/27 11:55:17;;;;;;;;;5.75;5.75;;;;;8.21;100.00;102123.81;5040187;28;10372;-72
2022/01/27 11:57:45;;;;;;;;;4.75;4.00;;;;;8.22;100.00;102130.91;5055521;28;10394;-72
2022/01/27 12:00:15;;;;;;;;;8.00;7.25;;;;;8.24;100.00;102114.59;5046090;28;10401;-73
2022/01/27 12:03:15;;;;;;;;;7.25;6.00;;;;;8.31;100.00;102115.72;5045731;28;10354;-72
2022/01/27 12:06:16;;;;;;;;;7.00;4.00;;;;;8.36;100.00;102110.75;5013050;28;11409;-72
2022/01/27 12:08:43;;;;;;;;;8.00;5.25;;;;;8.42;100.00;102115.56;5045503;28;10311;-72
2022/01/27 12:11:51;;;;;;;;;3.50;3.50;;;;;8.43;100.00;102108.38;5057093;28;10376;-73
2022/01/27 12:14:22;;;;;;;;;2.00;2.00;;;;;8.45;100.00;102119.88;5057379;28;10377;-73
2022/01/27 12:17:07;;;;;;;;;9.25;6.75;;;;;8.47;100.00;102109.78;5054972;28;10896;-72
2022/01/27 12:19:53;;;;;;;;;6.75;5.75;;;;;8.48;100.00;102119.56;5055213;28;10364;-73